Terminal Aerodrome Forecast
Issued by NWS

Home | Current Version | Previous Version | Text Only | Print | Product List | Glossary On
Versions: 1 2 3 4 5 6 7 8 9 10 11 12 13 14 15 16 17 18 19 20
000
FTUS41 KBTV 250531
TAFSLK
TAF
KSLK 250531Z 2506/2606 00000KT 3SM BR VCSH BKN008 OVC020
     FM251100 00000KT 3SM BR BKN010 OVC025
     FM251400 VRB03KT 4SM BR BKN015 OVC030
     FM251900 04006KT P6SM BKN030
     FM252100 04004KT P6SM SCT045 SCT200
     FM260100 05004KT P6SM SKC=

USA.gov is the U.S. government's official web portal to all federal, state and local government web resources and services.